createdAt,value
2022-07-28T00:01:09.371Z,396.80
2022-07-28T00:06:16.554Z,397.41
2022-07-28T00:11:23.768Z,397.86
2022-07-28T00:16:30.983Z,397.59
2022-07-28T00:21:38.143Z,397.96
2022-07-28T00:26:46.797Z,397.96
2022-07-28T00:31:52.525Z,398.36
2022-07-28T00:36:59.700Z,398.80
2022-07-28T00:42:06.977Z,398.56
2022-07-28T00:47:14.198Z,399.22
2022-07-28T00:52:21.371Z,399.40
2022-07-28T00:57:28.555Z,399.49
2022-07-28T01:02:35.895Z,399.98
2022-07-28T01:07:43.047Z,400.12
2022-07-28T01:12:50.327Z,400.21
2022-07-28T01:17:57.549Z,400.50
2022-07-28T01:23:04.782Z,400.70
2022-07-28T01:28:11.972Z,400.46
2022-07-28T01:33:19.189Z,400.62
2022-07-28T01:38:26.441Z,401.18
2022-07-28T01:43:33.627Z,400.90
2022-07-28T01:48:41.034Z,400.61
2022-07-28T01:53:48.101Z,400.86
2022-07-28T01:58:55.352Z,401.03
2022-07-28T02:04:02.629Z,401.06
2022-07-28T02:09:09.847Z,401.40
2022-07-28T02:14:17.650Z,401.69
2022-07-28T02:19:24.211Z,401.65
2022-07-28T02:24:31.409Z,401.89
2022-07-28T02:29:50.692Z,402.22
2022-07-28T02:34:45.761Z,402.35
2022-07-28T02:39:58.714Z,402.00
2022-07-28T02:45:00.140Z,402.01
2022-07-28T02:50:07.342Z,402.17
2022-07-28T02:55:14.667Z,402.20
2022-07-28T03:00:21.920Z,403.00
2022-07-28T03:05:29.171Z,402.73
2022-07-28T03:10:36.313Z,402.53
2022-07-28T03:15:43.535Z,401.78
2022-07-28T03:20:50.738Z,401.44
2022-07-28T03:25:57.932Z,400.84
2022-07-28T03:31:05.181Z,399.98
2022-07-28T03:36:12.307Z,400.05
2022-07-28T03:41:19.485Z,399.52
2022-07-28T03:46:26.778Z,399.71
2022-07-28T03:51:34.575Z,400.01
2022-07-28T03:56:41.883Z,399.86
2022-07-28T04:01:49.170Z,399.82
2022-07-28T04:06:56.372Z,399.87
2022-07-28T04:12:03.628Z,399.36
2022-07-28T04:17:10.934Z,399.56
2022-07-28T04:22:18.066Z,398.85
2022-07-28T04:27:25.366Z,398.77
2022-07-28T04:32:32.543Z,398.90
2022-07-28T04:37:39.809Z,398.54
2022-07-28T04:42:47.030Z,398.80
2022-07-28T04:47:54.284Z,398.93
2022-07-28T04:53:01.544Z,398.48
2022-07-28T04:58:09.411Z,398.26
2022-07-28T05:03:16.074Z,398.09
2022-07-28T05:08:25.626Z,397.81
2022-07-28T05:13:33.938Z,397.85
2022-07-28T05:18:37.690Z,398.07
2022-07-28T05:23:47.624Z,397.64
2022-07-28T05:28:52.060Z,397.75
2022-07-28T05:33:59.250Z,397.86
2022-07-28T05:39:06.446Z,397.59
2022-07-28T05:44:13.976Z,397.24
2022-07-28T05:49:20.962Z,397.49
2022-07-28T05:54:28.083Z,397.46
2022-07-28T05:59:35.304Z,397.27
2022-07-28T06:04:42.475Z,397.92
2022-07-28T06:09:49.649Z,398.43
2022-07-28T06:14:56.893Z,398.15
2022-07-28T06:20:04.532Z,398.11
2022-07-28T06:25:11.814Z,398.50
2022-07-28T06:30:18.974Z,398.62
2022-07-28T06:35:26.148Z,398.28
2022-07-28T06:40:33.383Z,398.10
2022-07-28T06:45:40.551Z,398.54
2022-07-28T06:50:47.733Z,398.19
2022-07-28T06:55:54.918Z,398.58
2022-07-28T07:01:02.223Z,398.87
2022-07-28T07:06:09.387Z,398.71
2022-07-28T07:11:16.631Z,398.34
2022-07-28T07:16:23.948Z,398.31
2022-07-28T07:21:31.036Z,398.41
2022-07-28T07:26:38.299Z,398.39
2022-07-28T07:31:45.632Z,398.59
2022-07-28T07:36:53.058Z,398.68
2022-07-28T07:42:00.350Z,398.97
2022-07-28T07:47:07.688Z,399.27
2022-07-28T07:52:15.076Z,399.49
2022-07-28T07:57:22.296Z,399.55
2022-07-28T08:02:29.800Z,399.67
2022-07-28T08:07:37.010Z,399.88
2022-07-28T08:12:44.296Z,400.31
2022-07-28T08:17:51.537Z,400.31
2022-07-28T08:22:58.753Z,400.05
2022-07-28T08:28:05.947Z,400.09
2022-07-28T08:33:13.173Z,400.77
2022-07-28T08:38:20.470Z,400.79
2022-07-28T08:43:27.700Z,400.98
2022-07-28T08:48:35.053Z,400.99
2022-07-28T08:53:42.217Z,400.58
2022-07-28T08:58:49.447Z,401.23
2022-07-28T09:03:56.644Z,401.34
2022-07-28T09:09:03.832Z,401.25
2022-07-28T09:14:11.477Z,401.18
2022-07-28T09:19:18.321Z,400.73
2022-07-28T09:24:25.573Z,401.71
2022-07-28T09:29:32.807Z,401.71
2022-07-28T09:34:40.087Z,402.42
2022-07-28T09:39:47.247Z,402.99
2022-07-28T09:45:20.278Z,403.02
2022-07-28T09:50:01.784Z,403.33
2022-07-28T09:55:08.912Z,402.66
2022-07-28T10:00:16.089Z,403.31
2022-07-28T10:05:23.288Z,404.24
2022-07-28T10:10:30.486Z,403.96
2022-07-28T10:15:37.797Z,403.92
2022-07-28T10:20:45.047Z,403.48
2022-07-28T10:25:52.271Z,404.62
2022-07-28T10:30:59.596Z,404.88
2022-07-28T10:36:06.733Z,404.95
2022-07-28T10:41:13.993Z,405.00
2022-07-28T10:46:21.291Z,404.96
2022-07-28T10:51:30.897Z,405.97
2022-07-28T10:56:35.624Z,405.62
2022-07-28T11:01:50.645Z,406.45
2022-07-28T11:06:50.032Z,406.16
2022-07-28T11:11:57.300Z,406.20
2022-07-28T11:17:04.716Z,406.68
2022-07-28T11:22:11.756Z,406.80
2022-07-28T11:27:18.984Z,407.37
2022-07-28T11:32:26.496Z,408.16
2022-07-28T11:37:33.507Z,408.33
2022-07-28T11:42:40.706Z,408.26
2022-07-28T11:47:47.924Z,408.35
2022-07-28T11:52:55.128Z,408.35
2022-07-28T11:58:02.365Z,408.07
2022-07-28T12:03:09.635Z,407.88
2022-07-28T12:08:16.856Z,407.85
2022-07-28T12:13:24.091Z,408.41
2022-07-28T12:18:31.291Z,408.97
2022-07-28T12:23:44.228Z,408.75
2022-07-28T12:28:45.760Z,409.64
2022-07-28T12:33:53.690Z,410.33
2022-07-28T12:39:00.147Z,410.29
2022-07-28T12:44:07.407Z,411.22
2022-07-28T12:49:14.738Z,411.67
2022-07-28T12:54:21.872Z,411.62
2022-07-28T12:59:29.112Z,412.47
2022-07-28T13:04:36.365Z,412.32
2022-07-28T13:09:43.538Z,412.24
2022-07-28T13:14:50.828Z,411.90
2022-07-28T13:19:58.028Z,412.61
2022-07-28T13:25:05.202Z,412.34
2022-07-28T13:30:12.394Z,412.97
2022-07-28T13:35:20.930Z,413.03
2022-07-28T13:40:26.945Z,413.25
2022-07-28T13:45:34.222Z,413.32
2022-07-28T13:50:41.430Z,413.27
2022-07-28T13:55:48.705Z,414.03
2022-07-28T14:00:56.016Z,414.33
2022-07-28T14:06:03.172Z,414.28
2022-07-28T14:11:10.374Z,414.45
2022-07-28T14:16:17.633Z,414.96
2022-07-28T14:21:24.714Z,415.21
2022-07-28T14:26:36.168Z,416.33
2022-07-28T14:31:39.317Z,416.92
2022-07-28T14:36:47.227Z,417.78
2022-07-28T14:41:53.568Z,417.86
2022-07-28T14:47:00.849Z,418.25
2022-07-28T14:52:07.959Z,418.53
2022-07-28T14:57:15.256Z,419.02
2022-07-28T15:02:28.960Z,418.92
2022-07-28T15:07:29.677Z,418.90
2022-07-28T15:12:36.903Z,419.08
2022-07-28T15:17:44.145Z,419.06
2022-07-28T15:22:51.329Z,418.62
2022-07-28T15:27:58.552Z,419.42
2022-07-28T15:33:05.838Z,419.84
2022-07-28T15:38:13.102Z,420.16
2022-07-28T15:43:23.564Z,421.25
2022-07-28T15:48:27.594Z,422.06
2022-07-28T15:53:34.777Z,422.24
2022-07-28T15:58:41.968Z,421.48
2022-07-28T16:03:49.182Z,421.58
2022-07-28T16:08:56.427Z,422.07
2022-07-28T16:14:03.617Z,421.47
2022-07-28T16:19:31.716Z,421.22
2022-07-28T16:24:18.256Z,421.62
2022-07-28T16:29:25.228Z,421.36
2022-07-28T16:34:32.468Z,420.90
2022-07-28T16:39:39.708Z,421.06
2022-07-28T16:44:46.966Z,420.49
2022-07-28T16:49:54.249Z,419.51
2022-07-28T16:55:01.503Z,419.44
2022-07-28T17:00:08.741Z,419.62
2022-07-28T17:05:15.955Z,420.01
2022-07-28T17:10:27.571Z,419.72
2022-07-28T17:15:30.358Z,417.97
2022-07-28T17:20:37.527Z,417.10
2022-07-28T17:30:52.152Z,416.78
2022-07-28T17:35:59.271Z,417.44
2022-07-28T17:41:06.464Z,417.85
2022-07-28T17:46:13.748Z,417.72
2022-07-28T17:51:20.927Z,417.75
2022-07-28T17:56:28.131Z,418.35
2022-07-28T18:01:35.492Z,417.54
2022-07-28T18:06:42.603Z,417.24
2022-07-28T18:11:57.044Z,415.50
2022-07-28T18:16:56.965Z,412.87
2022-07-28T18:22:04.149Z,407.51
2022-07-28T18:27:11.311Z,404.54
2022-07-28T18:32:18.541Z,402.85
2022-07-28T18:37:25.812Z,400.24
2022-07-28T18:42:33.055Z,395.75
2022-07-28T18:47:46.592Z,389.27
2022-07-28T18:52:47.463Z,384.21
2022-07-28T18:57:54.896Z,382.41
2022-07-28T19:03:02.184Z,379.88
2022-07-28T19:08:09.400Z,379.85
2022-07-28T19:13:16.609Z,380.45
2022-07-28T19:18:23.883Z,381.98
2022-07-28T19:23:31.113Z,383.19
2022-07-28T19:28:38.404Z,384.43
2022-07-28T19:33:45.601Z,387.87
2022-07-28T19:38:52.845Z,391.12
2022-07-28T19:44:00.015Z,394.98
2022-07-28T19:49:07.349Z,394.84
2022-07-28T19:54:15.291Z,394.89
2022-07-28T19:59:21.828Z,394.62
2022-07-28T20:04:29.090Z,394.06
2022-07-28T20:09:36.300Z,392.61
2022-07-28T20:14:43.598Z,391.63
2022-07-28T20:19:50.806Z,390.75
2022-07-28T20:24:58.004Z,389.56
2022-07-28T20:30:05.254Z,390.05
2022-07-28T20:35:12.469Z,389.31
2022-07-28T20:40:19.711Z,389.27
2022-07-28T20:45:26.946Z,388.48
2022-07-28T20:50:34.093Z,387.32
2022-07-28T20:55:41.308Z,385.17
2022-07-28T21:00:48.535Z,385.34
2022-07-28T21:05:55.671Z,384.89
2022-07-28T21:11:02.881Z,384.66
2022-07-28T21:16:10.165Z,382.81
2022-07-28T21:21:17.394Z,383.42
2022-07-28T21:26:24.577Z,383.63
2022-07-28T21:31:31.805Z,383.12
2022-07-28T21:36:39.001Z,383.08
2022-07-28T21:41:46.249Z,382.26
2022-07-28T21:46:53.762Z,381.50
2022-07-28T21:52:00.999Z,381.30
2022-07-28T21:57:20.921Z,381.58
2022-07-28T22:02:15.530Z,381.41
2022-07-28T22:07:22.742Z,381.58
2022-07-28T22:12:29.972Z,380.23
2022-07-28T22:17:37.182Z,379.62
2022-07-28T22:22:44.442Z,379.24
2022-07-28T22:27:51.656Z,379.90
2022-07-28T22:32:58.891Z,380.04
2022-07-28T22:38:06.099Z,380.08
2022-07-28T22:43:13.322Z,379.98
2022-07-28T22:48:20.570Z,379.55
2022-07-28T22:53:27.776Z,379.03
2022-07-28T22:58:35.041Z,378.87
2022-07-28T23:03:42.303Z,378.72
2022-07-28T23:08:49.642Z,379.04
2022-07-28T23:13:56.944Z,379.20
2022-07-28T23:19:04.476Z,379.51
2022-07-28T23:24:11.805Z,379.34
2022-07-28T23:29:18.894Z,379.67
2022-07-28T23:34:26.153Z,378.89
2022-07-28T23:39:33.408Z,379.93
2022-07-28T23:44:40.660Z,380.43
2022-07-28T23:49:47.966Z,380.38
2022-07-28T23:54:56.169Z,381.15
